sensor_id;sensor_type;location;lat;lon;timestamp;P1;durP1;ratioP1;P2;durP2;ratioP2
7517;SDS011;3800;48.922;9.444;2023-06-22T00:02:10;7.10;;;6.40;;
7517;SDS011;3800;48.922;9.444;2023-06-22T00:04:38;8.07;;;6.40;;
7517;SDS011;3800;48.922;9.444;2023-06-22T00:07:07;8.13;;;6.37;;
7517;SDS011;3800;48.922;9.444;2023-06-22T00:09:35;8.13;;;6.27;;
7517;SDS011;3800;48.922;9.444;2023-06-22T00:12:04;8.10;;;6.70;;
7517;SDS011;3800;48.922;9.444;2023-06-22T00:14:33;8.10;;;6.50;;
7517;SDS011;3800;48.922;9.444;2023-06-22T00:17:02;8.90;;;6.77;;
7517;SDS011;3800;48.922;9.444;2023-06-22T00:19:31;10.20;;;6.20;;
7517;SDS011;3800;48.922;9.444;2023-06-22T00:21:59;8.83;;;5.97;;
7517;SDS011;3800;48.922;9.444;2023-06-22T00:24:27;6.90;;;5.70;;
7517;SDS011;3800;48.922;9.444;2023-06-22T00:26:55;9.03;;;6.03;;
7517;SDS011;3800;48.922;9.444;2023-06-22T00:29:24;7.50;;;6.33;;
7517;SDS011;3800;48.922;9.444;2023-06-22T00:31:53;7.57;;;6.33;;
7517;SDS011;3800;48.922;9.444;2023-06-22T00:34:21;6.57;;;5.90;;
7517;SDS011;3800;48.922;9.444;2023-06-22T00:36:49;7.73;;;6.27;;
7517;SDS011;3800;48.922;9.444;2023-06-22T00:39:17;11.07;;;6.40;;
7517;SDS011;3800;48.922;9.444;2023-06-22T00:41:46;9.13;;;6.60;;
7517;SDS011;3800;48.922;9.444;2023-06-22T00:44:14;7.23;;;6.53;;
7517;SDS011;3800;48.922;9.444;2023-06-22T00:46:42;9.67;;;6.50;;
7517;SDS011;3800;48.922;9.444;2023-06-22T00:49:11;7.27;;;6.57;;
7517;SDS011;3800;48.922;9.444;2023-06-22T00:51:39;8.50;;;5.90;;
7517;SDS011;3800;48.922;9.444;2023-06-22T00:54:08;10.20;;;6.17;;
7517;SDS011;3800;48.922;9.444;2023-06-22T00:56:37;7.20;;;6.50;;
7517;SDS011;3800;48.922;9.444;2023-06-22T00:59:05;7.00;;;6.30;;
7517;SDS011;3800;48.922;9.444;2023-06-22T01:01:33;8.43;;;6.07;;
7517;SDS011;3800;48.922;9.444;2023-06-22T01:04:02;8.33;;;6.73;;
7517;SDS011;3800;48.922;9.444;2023-06-22T01:06:32;9.37;;;6.40;;
7517;SDS011;3800;48.922;9.444;2023-06-22T01:09:02;8.40;;;6.60;;
7517;SDS011;3800;48.922;9.444;2023-06-22T01:11:36;7.00;;;6.30;;
7517;SDS011;3800;48.922;9.444;2023-06-22T01:14:06;7.47;;;6.20;;
7517;SDS011;3800;48.922;9.444;2023-06-22T01:16:49;7.07;;;6.07;;
7517;SDS011;3800;48.922;9.444;2023-06-22T01:19:26;8.30;;;6.27;;
7517;SDS011;3800;48.922;9.444;2023-06-22T01:21:55;8.83;;;6.97;;
7517;SDS011;3800;48.922;9.444;2023-06-22T01:24:27;7.30;;;6.60;;
7517;SDS011;3800;48.922;9.444;2023-06-22T01:29:40;7.00;;;6.30;;
7517;SDS011;3800;48.922;9.444;2023-06-22T01:32:08;9.00;;;6.87;;
7517;SDS011;3800;48.922;9.444;2023-06-22T01:34:37;8.40;;;7.37;;
7517;SDS011;3800;48.922;9.444;2023-06-22T01:37:05;7.47;;;6.77;;
7517;SDS011;3800;48.922;9.444;2023-06-22T01:39:33;10.47;;;7.00;;
7517;SDS011;3800;48.922;9.444;2023-06-22T01:42:02;9.70;;;7.67;;
7517;SDS011;3800;48.922;9.444;2023-06-22T01:44:30;8.40;;;7.40;;
7517;SDS011;3800;48.922;9.444;2023-06-22T01:46:59;7.97;;;7.17;;
7517;SDS011;3800;48.922;9.444;2023-06-22T01:49:27;8.27;;;6.70;;
7517;SDS011;3800;48.922;9.444;2023-06-22T01:51:56;7.83;;;6.97;;
7517;SDS011;3800;48.922;9.444;2023-06-22T01:54:25;7.77;;;6.43;;
7517;SDS011;3800;48.922;9.444;2023-06-22T01:56:54;9.77;;;7.03;;
7517;SDS011;3800;48.922;9.444;2023-06-22T01:59:25;8.40;;;6.73;;
7517;SDS011;3800;48.922;9.444;2023-06-22T02:01:54;7.33;;;6.13;;
7517;SDS011;3800;48.922;9.444;2023-06-22T02:04:26;7.93;;;7.00;;
7517;SDS011;3800;48.922;9.444;2023-06-22T02:06:55;7.37;;;6.63;;
7517;SDS011;3800;48.922;9.444;2023-06-22T02:09:23;10.37;;;7.40;;
7517;SDS011;3800;48.922;9.444;2023-06-22T02:11:52;8.00;;;7.20;;
7517;SDS011;3800;48.922;9.444;2023-06-22T02:14:20;9.17;;;6.97;;
7517;SDS011;3800;48.922;9.444;2023-06-22T02:16:49;9.80;;;7.60;;
7517;SDS011;3800;48.922;9.444;2023-06-22T02:19:22;8.93;;;7.10;;
7517;SDS011;3800;48.922;9.444;2023-06-22T02:21:46;10.17;;;7.50;;
7517;SDS011;3800;48.922;9.444;2023-06-22T02:24:14;8.17;;;6.93;;
7517;SDS011;3800;48.922;9.444;2023-06-22T02:26:43;13.43;;;7.47;;
7517;SDS011;3800;48.922;9.444;2023-06-22T02:29:11;7.90;;;7.13;;
7517;SDS011;3800;48.922;9.444;2023-06-22T02:31:40;9.87;;;7.70;;
7517;SDS011;3800;48.922;9.444;2023-06-22T02:34:08;7.57;;;6.77;;
7517;SDS011;3800;48.922;9.444;2023-06-22T02:36:37;7.97;;;7.27;;
7517;SDS011;3800;48.922;9.444;2023-06-22T02:39:06;10.70;;;7.97;;
7517;SDS011;3800;48.922;9.444;2023-06-22T02:41:34;8.97;;;7.37;;
7517;SDS011;3800;48.922;9.444;2023-06-22T02:44:03;8.33;;;7.40;;
7517;SDS011;3800;48.922;9.444;2023-06-22T02:46:31;8.43;;;7.43;;
7517;SDS011;3800;48.922;9.444;2023-06-22T02:49:00;10.10;;;8.60;;
7517;SDS011;3800;48.922;9.444;2023-06-22T02:51:30;10.73;;;8.37;;
7517;SDS011;3800;48.922;9.444;2023-06-22T02:53:57;9.00;;;8.10;;
7517;SDS011;3800;48.922;9.444;2023-06-22T02:56:25;8.60;;;7.80;;
7517;SDS011;3800;48.922;9.444;2023-06-22T02:58:53;10.03;;;8.10;;
7517;SDS011;3800;48.922;9.444;2023-06-22T03:01:22;12.70;;;8.20;;
7517;SDS011;3800;48.922;9.444;2023-06-22T03:03:51;10.07;;;8.20;;
7517;SDS011;3800;48.922;9.444;2023-06-22T03:06:20;10.63;;;8.30;;
7517;SDS011;3800;48.922;9.444;2023-06-22T03:08:47;9.13;;;8.23;;
7517;SDS011;3800;48.922;9.444;2023-06-22T03:11:17;13.00;;;7.97;;
7517;SDS011;3800;48.922;9.444;2023-06-22T03:13:46;8.67;;;7.80;;
7517;SDS011;3800;48.922;9.444;2023-06-22T03:16:14;13.37;;;9.40;;
7517;SDS011;3800;48.922;9.444;2023-06-22T03:18:43;9.30;;;8.40;;
7517;SDS011;3800;48.922;9.444;2023-06-22T03:21:11;10.77;;;9.27;;
7517;SDS011;3800;48.922;9.444;2023-06-22T03:23:39;10.23;;;8.23;;
7517;SDS011;3800;48.922;9.444;2023-06-22T03:26:08;9.83;;;8.60;;
7517;SDS011;3800;48.922;9.444;2023-06-22T03:28:36;13.60;;;9.50;;
7517;SDS011;3800;48.922;9.444;2023-06-22T03:31:04;9.73;;;8.83;;
7517;SDS011;3800;48.922;9.444;2023-06-22T03:33:32;9.40;;;8.50;;
7517;SDS011;3800;48.922;9.444;2023-06-22T03:36:02;12.03;;;9.30;;
7517;SDS011;3800;48.922;9.444;2023-06-22T03:38:30;11.93;;;8.80;;
7517;SDS011;3800;48.922;9.444;2023-06-22T03:40:58;9.67;;;8.77;;
7517;SDS011;3800;48.922;9.444;2023-06-22T03:43:26;10.37;;;9.20;;
7517;SDS011;3800;48.922;9.444;2023-06-22T03:45:55;10.13;;;7.90;;
7517;SDS011;3800;48.922;9.444;2023-06-22T03:48:23;10.13;;;9.13;;
7517;SDS011;3800;48.922;9.444;2023-06-22T03:50:51;10.77;;;9.37;;
7517;SDS011;3800;48.922;9.444;2023-06-22T03:53:20;10.63;;;9.10;;
7517;SDS011;3800;48.922;9.444;2023-06-22T03:55:49;11.53;;;9.43;;
7517;SDS011;3800;48.922;9.444;2023-06-22T03:58:17;11.37;;;9.73;;
7517;SDS011;3800;48.922;9.444;2023-06-22T04:00:48;11.37;;;10.27;;
7517;SDS011;3800;48.922;9.444;2023-06-22T04:03:16;11.50;;;10.30;;
7517;SDS011;3800;48.922;9.444;2023-06-22T04:05:47;12.57;;;9.67;;
7517;SDS011;3800;48.922;9.444;2023-06-22T04:08:15;11.93;;;9.53;;
7517;SDS011;3800;48.922;9.444;2023-06-22T04:10:43;11.33;;;9.80;;
7517;SDS011;3800;48.922;9.444;2023-06-22T04:13:11;13.90;;;9.97;;
7517;SDS011;3800;48.922;9.444;2023-06-22T04:15:40;12.53;;;9.43;;
7517;SDS011;3800;48.922;9.444;2023-06-22T04:18:08;12.10;;;10.27;;
7517;SDS011;3800;48.922;9.444;2023-06-22T04:20:36;13.80;;;10.63;;
7517;SDS011;3800;48.922;9.444;2023-06-22T04:23:05;11.87;;;10.17;;
7517;SDS011;3800;48.922;9.444;2023-06-22T04:25:33;11.03;;;10.00;;
7517;SDS011;3800;48.922;9.444;2023-06-22T04:28:01;13.00;;;9.63;;
7517;SDS011;3800;48.922;9.444;2023-06-22T04:30:29;9.87;;;8.67;;
7517;SDS011;3800;48.922;9.444;2023-06-22T04:32:58;10.50;;;9.00;;
7517;SDS011;3800;48.922;9.444;2023-06-22T04:35:26;11.53;;;10.43;;
7517;SDS011;3800;48.922;9.444;2023-06-22T04:37:55;12.53;;;10.30;;
7517;SDS011;3800;48.922;9.444;2023-06-22T04:40:23;11.90;;;9.80;;
7517;SDS011;3800;48.922;9.444;2023-06-22T04:42:51;12.03;;;10.27;;
7517;SDS011;3800;48.922;9.444;2023-06-22T04:45:19;11.07;;;9.97;;
7517;SDS011;3800;48.922;9.444;2023-06-22T04:47:47;10.67;;;9.57;;
7517;SDS011;3800;48.922;9.444;2023-06-22T04:50:15;10.77;;;9.67;;
7517;SDS011;3800;48.922;9.444;2023-06-22T04:52:44;10.50;;;9.50;;
7517;SDS011;3800;48.922;9.444;2023-06-22T04:55:12;11.73;;;9.57;;
7517;SDS011;3800;48.922;9.444;2023-06-22T04:57:40;10.17;;;9.17;;
7517;SDS011;3800;48.922;9.444;2023-06-22T05:00:10;10.80;;;9.70;;
7517;SDS011;3800;48.922;9.444;2023-06-22T05:02:39;12.17;;;10.07;;
7517;SDS011;3800;48.922;9.444;2023-06-22T05:05:08;12.27;;;9.77;;
7517;SDS011;3800;48.922;9.444;2023-06-22T05:07:36;11.43;;;9.27;;
7517;SDS011;3800;48.922;9.444;2023-06-22T05:10:04;10.20;;;9.00;;
7517;SDS011;3800;48.922;9.444;2023-06-22T05:12:33;10.93;;;8.60;;
7517;SDS011;3800;48.922;9.444;2023-06-22T05:15:01;9.80;;;8.80;;
7517;SDS011;3800;48.922;9.444;2023-06-22T05:17:29;10.30;;;8.43;;
7517;SDS011;3800;48.922;9.444;2023-06-22T05:19:58;11.03;;;8.70;;
7517;SDS011;3800;48.922;9.444;2023-06-22T05:22:26;10.40;;;8.37;;
7517;SDS011;3800;48.922;9.444;2023-06-22T05:24:54;9.03;;;8.13;;
7517;SDS011;3800;48.922;9.444;2023-06-22T05:27:22;11.90;;;7.87;;
7517;SDS011;3800;48.922;9.444;2023-06-22T05:29:51;10.27;;;8.47;;
7517;SDS011;3800;48.922;9.444;2023-06-22T05:32:19;8.73;;;7.93;;
7517;SDS011;3800;48.922;9.444;2023-06-22T05:34:47;8.17;;;7.37;;
7517;SDS011;3800;48.922;9.444;2023-06-22T05:37:16;9.63;;;7.23;;
7517;SDS011;3800;48.922;9.444;2023-06-22T05:39:44;7.50;;;6.70;;
7517;SDS011;3800;48.922;9.444;2023-06-22T05:42:12;8.40;;;7.17;;
7517;SDS011;3800;48.922;9.444;2023-06-22T05:44:41;11.30;;;8.03;;
7517;SDS011;3800;48.922;9.444;2023-06-22T05:47:09;8.17;;;7.33;;
7517;SDS011;3800;48.922;9.444;2023-06-22T05:49:38;8.00;;;6.87;;
7517;SDS011;3800;48.922;9.444;2023-06-22T05:52:06;9.17;;;7.00;;
7517;SDS011;3800;48.922;9.444;2023-06-22T05:54:34;7.60;;;6.67;;
7517;SDS011;3800;48.922;9.444;2023-06-22T05:57:03;7.33;;;6.63;;
7517;SDS011;3800;48.922;9.444;2023-06-22T05:59:31;10.80;;;7.73;;
7517;SDS011;3800;48.922;9.444;2023-06-22T06:01:59;7.83;;;7.03;;
7517;SDS011;3800;48.922;9.444;2023-06-22T06:04:28;7.90;;;7.10;;
7517;SDS011;3800;48.922;9.444;2023-06-22T06:06:57;7.43;;;6.33;;
7517;SDS011;3800;48.922;9.444;2023-06-22T06:09:26;7.33;;;6.63;;
7517;SDS011;3800;48.922;9.444;2023-06-22T06:11:54;9.10;;;7.07;;
7517;SDS011;3800;48.922;9.444;2023-06-22T06:14:23;9.23;;;7.37;;
7517;SDS011;3800;48.922;9.444;2023-06-22T06:16:52;9.53;;;6.90;;
7517;SDS011;3800;48.922;9.444;2023-06-22T06:19:20;7.00;;;6.40;;
7517;SDS011;3800;48.922;9.444;2023-06-22T06:21:48;8.33;;;6.53;;
7517;SDS011;3800;48.922;9.444;2023-06-22T06:24:17;6.80;;;6.10;;
7517;SDS011;3800;48.922;9.444;2023-06-22T06:26:45;7.70;;;6.70;;
7517;SDS011;3800;48.922;9.444;2023-06-22T06:29:13;7.03;;;6.20;;
7517;SDS011;3800;48.922;9.444;2023-06-22T06:31:41;8.13;;;6.40;;
7517;SDS011;3800;48.922;9.444;2023-06-22T06:34:10;7.73;;;6.27;;
7517;SDS011;3800;48.922;9.444;2023-06-22T06:36:38;8.07;;;6.67;;
7517;SDS011;3800;48.922;9.444;2023-06-22T06:39:07;7.37;;;6.60;;
7517;SDS011;3800;48.922;9.444;2023-06-22T06:41:35;7.97;;;6.17;;
7517;SDS011;3800;48.922;9.444;2023-06-22T06:44:03;7.20;;;5.97;;
7517;SDS011;3800;48.922;9.444;2023-06-22T06:46:32;7.20;;;6.50;;
7517;SDS011;3800;48.922;9.444;2023-06-22T06:49:01;7.33;;;6.50;;
7517;SDS011;3800;48.922;9.444;2023-06-22T06:51:29;6.97;;;6.27;;
7517;SDS011;3800;48.922;9.444;2023-06-22T06:53:57;6.63;;;6.03;;
7517;SDS011;3800;48.922;9.444;2023-06-22T06:56:26;7.50;;;6.03;;
7517;SDS011;3800;48.922;9.444;2023-06-22T06:58:55;7.93;;;5.73;;
7517;SDS011;3800;48.922;9.444;2023-06-22T07:01:23;6.60;;;5.87;;
7517;SDS011;3800;48.922;9.444;2023-06-22T07:03:52;6.17;;;5.60;;
7517;SDS011;3800;48.922;9.444;2023-06-22T07:06:21;7.77;;;5.53;;
7517;SDS011;3800;48.922;9.444;2023-06-22T07:08:49;6.93;;;5.93;;
7517;SDS011;3800;48.922;9.444;2023-06-22T07:11:18;7.90;;;6.37;;
7517;SDS011;3800;48.922;9.444;2023-06-22T07:13:46;7.20;;;5.70;;
7517;SDS011;3800;48.922;9.444;2023-06-22T07:16:15;9.87;;;6.10;;
7517;SDS011;3800;48.922;9.444;2023-06-22T07:18:44;7.87;;;6.23;;
7517;SDS011;3800;48.922;9.444;2023-06-22T07:21:12;6.43;;;5.77;;
7517;SDS011;3800;48.922;9.444;2023-06-22T07:23:41;7.00;;;5.53;;
7517;SDS011;3800;48.922;9.444;2023-06-22T07:26:09;6.60;;;5.90;;
7517;SDS011;3800;48.922;9.444;2023-06-22T07:28:38;5.60;;;5.03;;
7517;SDS011;3800;48.922;9.444;2023-06-22T07:31:06;6.60;;;5.60;;
7517;SDS011;3800;48.922;9.444;2023-06-22T07:33:35;6.73;;;5.43;;
7517;SDS011;3800;48.922;9.444;2023-06-22T07:36:04;6.97;;;4.97;;
7517;SDS011;3800;48.922;9.444;2023-06-22T07:38:32;7.73;;;5.20;;
7517;SDS011;3800;48.922;9.444;2023-06-22T07:41:00;5.83;;;4.13;;
7517;SDS011;3800;48.922;9.444;2023-06-22T07:43:28;7.13;;;4.60;;
7517;SDS011;3800;48.922;9.444;2023-06-22T07:45:57;6.30;;;4.60;;
7517;SDS011;3800;48.922;9.444;2023-06-22T07:48:25;6.83;;;4.33;;
7517;SDS011;3800;48.922;9.444;2023-06-22T07:50:53;8.20;;;4.13;;
7517;SDS011;3800;48.922;9.444;2023-06-22T07:53:22;5.57;;;4.33;;
7517;SDS011;3800;48.922;9.444;2023-06-22T07:55:51;6.20;;;4.57;;
7517;SDS011;3800;48.922;9.444;2023-06-22T07:58:19;11.03;;;4.57;;
7517;SDS011;3800;48.922;9.444;2023-06-22T08:00:47;7.43;;;4.40;;
7517;SDS011;3800;48.922;9.444;2023-06-22T08:03:16;7.47;;;4.30;;
7517;SDS011;3800;48.922;9.444;2023-06-22T08:05:45;5.63;;;3.93;;
7517;SDS011;3800;48.922;9.444;2023-06-22T08:08:13;7.23;;;4.10;;
7517;SDS011;3800;48.922;9.444;2023-06-22T08:10:41;9.30;;;4.13;;
7517;SDS011;3800;48.922;9.444;2023-06-22T08:13:09;8.73;;;4.70;;
7517;SDS011;3800;48.922;9.444;2023-06-22T08:15:38;7.20;;;3.90;;
7517;SDS011;3800;48.922;9.444;2023-06-22T08:18:06;7.13;;;4.30;;
7517;SDS011;3800;48.922;9.444;2023-06-22T08:20:34;5.97;;;4.33;;
7517;SDS011;3800;48.922;9.444;2023-06-22T08:23:02;5.03;;;3.83;;
7517;SDS011;3800;48.922;9.444;2023-06-22T08:25:32;6.93;;;4.00;;
7517;SDS011;3800;48.922;9.444;2023-06-22T08:28:01;5.67;;;4.13;;
7517;SDS011;3800;48.922;9.444;2023-06-22T08:30:29;5.57;;;4.00;;
7517;SDS011;3800;48.922;9.444;2023-06-22T08:32:58;5.50;;;4.03;;
7517;SDS011;3800;48.922;9.444;2023-06-22T08:35:27;6.23;;;4.13;;
7517;SDS011;3800;48.922;9.444;2023-06-22T08:37:55;6.87;;;4.03;;
7517;SDS011;3800;48.922;9.444;2023-06-22T08:40:23;7.83;;;4.17;;
7517;SDS011;3800;48.922;9.444;2023-06-22T08:42:51;5.07;;;4.10;;
7517;SDS011;3800;48.922;9.444;2023-06-22T08:45:20;6.43;;;4.57;;
7517;SDS011;3800;48.922;9.444;2023-06-22T08:47:49;7.03;;;4.23;;
7517;SDS011;3800;48.922;9.444;2023-06-22T08:50:18;7.43;;;4.30;;
7517;SDS011;3800;48.922;9.444;2023-06-22T08:52:46;6.90;;;4.10;;
7517;SDS011;3800;48.922;9.444;2023-06-22T08:55:14;7.40;;;4.40;;
7517;SDS011;3800;48.922;9.444;2023-06-22T08:57:43;5.87;;;3.70;;
7517;SDS011;3800;48.922;9.444;2023-06-22T09:00:12;5.93;;;4.23;;
7517;SDS011;3800;48.922;9.444;2023-06-22T09:02:44;7.00;;;4.30;;
7517;SDS011;3800;48.922;9.444;2023-06-22T09:05:11;6.77;;;4.30;;
7517;SDS011;3800;48.922;9.444;2023-06-22T09:07:39;7.00;;;4.53;;
7517;SDS011;3800;48.922;9.444;2023-06-22T09:10:08;6.93;;;4.37;;
7517;SDS011;3800;48.922;9.444;2023-06-22T09:12:36;6.63;;;4.00;;
7517;SDS011;3800;48.922;9.444;2023-06-22T09:15:04;7.37;;;4.30;;
7517;SDS011;3800;48.922;9.444;2023-06-22T09:17:33;5.53;;;4.30;;
7517;SDS011;3800;48.922;9.444;2023-06-22T09:20:02;11.57;;;4.87;;
7517;SDS011;3800;48.922;9.444;2023-06-22T09:22:31;5.73;;;4.10;;
7517;SDS011;3800;48.922;9.444;2023-06-22T09:24:59;8.23;;;4.20;;
7517;SDS011;3800;48.922;9.444;2023-06-22T09:27:27;5.93;;;4.33;;
7517;SDS011;3800;48.922;9.444;2023-06-22T09:29:56;8.70;;;5.10;;
7517;SDS011;3800;48.922;9.444;2023-06-22T09:32:24;9.67;;;4.10;;
7517;SDS011;3800;48.922;9.444;2023-06-22T09:34:54;8.07;;;4.57;;
7517;SDS011;3800;48.922;9.444;2023-06-22T09:37:22;5.87;;;4.47;;
7517;SDS011;3800;48.922;9.444;2023-06-22T09:39:50;6.87;;;4.37;;
7517;SDS011;3800;48.922;9.444;2023-06-22T09:42:19;6.77;;;4.67;;
7517;SDS011;3800;48.922;9.444;2023-06-22T09:44:48;5.83;;;4.20;;
7517;SDS011;3800;48.922;9.444;2023-06-22T09:47:16;6.93;;;4.20;;
7517;SDS011;3800;48.922;9.444;2023-06-22T09:49:44;6.83;;;4.20;;
7517;SDS011;3800;48.922;9.444;2023-06-22T09:52:12;8.43;;;4.70;;
7517;SDS011;3800;48.922;9.444;2023-06-22T09:54:41;7.60;;;4.50;;
7517;SDS011;3800;48.922;9.444;2023-06-22T09:57:09;7.90;;;4.50;;
7517;SDS011;3800;48.922;9.444;2023-06-22T09:59:37;7.63;;;4.27;;
7517;SDS011;3800;48.922;9.444;2023-06-22T10:02:06;6.27;;;4.20;;
7517;SDS011;3800;48.922;9.444;2023-06-22T10:04:34;8.43;;;4.30;;
7517;SDS011;3800;48.922;9.444;2023-06-22T10:07:02;6.93;;;4.10;;
7517;SDS011;3800;48.922;9.444;2023-06-22T10:09:31;8.70;;;4.30;;
7517;SDS011;3800;48.922;9.444;2023-06-22T10:11:59;9.90;;;4.43;;
7517;SDS011;3800;48.922;9.444;2023-06-22T10:14:27;11.97;;;5.00;;
7517;SDS011;3800;48.922;9.444;2023-06-22T10:16:56;8.83;;;4.57;;
7517;SDS011;3800;48.922;9.444;2023-06-22T10:19:25;6.67;;;4.27;;
7517;SDS011;3800;48.922;9.444;2023-06-22T10:21:53;7.50;;;4.27;;
7517;SDS011;3800;48.922;9.444;2023-06-22T10:24:21;10.07;;;4.57;;
7517;SDS011;3800;48.922;9.444;2023-06-22T10:26:50;8.85;;;4.40;;
7517;SDS011;3800;48.922;9.444;2023-06-22T10:29:19;6.93;;;4.57;;
7517;SDS011;3800;48.922;9.444;2023-06-22T10:31:47;8.40;;;4.90;;
7517;SDS011;3800;48.922;9.444;2023-06-22T10:34:16;8.03;;;4.30;;
7517;SDS011;3800;48.922;9.444;2023-06-22T10:36:44;9.03;;;4.27;;
7517;SDS011;3800;48.922;9.444;2023-06-22T10:39:12;6.90;;;4.30;;
7517;SDS011;3800;48.922;9.444;2023-06-22T10:41:40;9.17;;;4.10;;
7517;SDS011;3800;48.922;9.444;2023-06-22T10:44:09;7.17;;;4.67;;
7517;SDS011;3800;48.922;9.444;2023-06-22T10:46:37;9.77;;;4.60;;
7517;SDS011;3800;48.922;9.444;2023-06-22T10:49:06;8.17;;;4.03;;
7517;SDS011;3800;48.922;9.444;2023-06-22T10:51:34;6.93;;;4.33;;
7517;SDS011;3800;48.922;9.444;2023-06-22T10:54:03;11.63;;;4.50;;
7517;SDS011;3800;48.922;9.444;2023-06-22T10:56:32;9.67;;;4.40;;
7517;SDS011;3800;48.922;9.444;2023-06-22T10:59:00;8.77;;;4.63;;
7517;SDS011;3800;48.922;9.444;2023-06-22T11:01:28;8.73;;;4.40;;
7517;SDS011;3800;48.922;9.444;2023-06-22T11:03:57;9.98;;;4.72;;
7517;SDS011;3800;48.922;9.444;2023-06-22T11:06:25;8.33;;;4.30;;
7517;SDS011;3800;48.922;9.444;2023-06-22T11:08:53;7.72;;;4.40;;
7517;SDS011;3800;48.922;9.444;2023-06-22T11:11:22;11.38;;;4.30;;
7517;SDS011;3800;48.922;9.444;2023-06-22T11:13:50;10.37;;;4.40;;
7517;SDS011;3800;48.922;9.444;2023-06-22T11:16:19;7.85;;;4.53;;
7517;SDS011;3800;48.922;9.444;2023-06-22T11:18:47;8.35;;;4.78;;
7517;SDS011;3800;48.922;9.444;2023-06-22T11:21:15;9.88;;;4.10;;
7517;SDS011;3800;48.922;9.444;2023-06-22T11:23:43;11.77;;;4.40;;
7517;SDS011;3800;48.922;9.444;2023-06-22T11:26:12;9.55;;;4.47;;
7517;SDS011;3800;48.922;9.444;2023-06-22T11:28:40;8.20;;;4.37;;
7517;SDS011;3800;48.922;9.444;2023-06-22T11:31:08;8.65;;;4.45;;
7517;SDS011;3800;48.922;9.444;2023-06-22T11:33:36;6.87;;;4.22;;
7517;SDS011;3800;48.922;9.444;2023-06-22T11:36:05;8.32;;;4.90;;
7517;SDS011;3800;48.922;9.444;2023-06-22T11:38:33;7.05;;;4.53;;
7517;SDS011;3800;48.922;9.444;2023-06-22T11:41:01;8.00;;;4.70;;
7517;SDS011;3800;48.922;9.444;2023-06-22T11:43:29;7.70;;;4.62;;
7517;SDS011;3800;48.922;9.444;2023-06-22T11:45:58;6.97;;;4.25;;
7517;SDS011;3800;48.922;9.444;2023-06-22T11:48:26;12.00;;;4.87;;
7517;SDS011;3800;48.922;9.444;2023-06-22T11:50:54;7.93;;;4.32;;
7517;SDS011;3800;48.922;9.444;2023-06-22T11:53:24;8.40;;;4.37;;
7517;SDS011;3800;48.922;9.444;2023-06-22T11:55:52;8.97;;;4.70;;
7517;SDS011;3800;48.922;9.444;2023-06-22T11:58:20;7.85;;;4.70;;
7517;SDS011;3800;48.922;9.444;2023-06-22T12:00:48;7.03;;;4.28;;
7517;SDS011;3800;48.922;9.444;2023-06-22T12:03:16;7.05;;;4.32;;
7517;SDS011;3800;48.922;9.444;2023-06-22T12:05:45;8.10;;;4.62;;
7517;SDS011;3800;48.922;9.444;2023-06-22T12:08:13;7.72;;;4.45;;
7517;SDS011;3800;48.922;9.444;2023-06-22T12:10:42;9.40;;;4.85;;
7517;SDS011;3800;48.922;9.444;2023-06-22T12:13:10;8.05;;;4.72;;
7517;SDS011;3800;48.922;9.444;2023-06-22T12:15:39;10.45;;;4.35;;
7517;SDS011;3800;48.922;9.444;2023-06-22T12:18:07;10.50;;;4.68;;
7517;SDS011;3800;48.922;9.444;2023-06-22T12:20:35;8.55;;;4.60;;
7517;SDS011;3800;48.922;9.444;2023-06-22T12:23:03;7.90;;;4.53;;
7517;SDS011;3800;48.922;9.444;2023-06-22T12:25:32;13.18;;;5.47;;
7517;SDS011;3800;48.922;9.444;2023-06-22T12:28:00;7.72;;;4.57;;
7517;SDS011;3800;48.922;9.444;2023-06-22T12:30:29;6.25;;;4.70;;
7517;SDS011;3800;48.922;9.444;2023-06-22T12:32:57;7.70;;;4.53;;
7517;SDS011;3800;48.922;9.444;2023-06-22T12:35:25;10.30;;;4.43;;
7517;SDS011;3800;48.922;9.444;2023-06-22T12:37:54;7.85;;;4.60;;
7517;SDS011;3800;48.922;9.444;2023-06-22T12:40:24;8.23;;;4.10;;
7517;SDS011;3800;48.922;9.444;2023-06-22T12:42:52;9.82;;;5.03;;
7517;SDS011;3800;48.922;9.444;2023-06-22T12:45:21;9.75;;;4.72;;
7517;SDS011;3800;48.922;9.444;2023-06-22T12:47:49;11.77;;;4.82;;
7517;SDS011;3800;48.922;9.444;2023-06-22T12:50:18;7.78;;;4.32;;
7517;SDS011;3800;48.922;9.444;2023-06-22T12:52:46;11.12;;;4.47;;
7517;SDS011;3800;48.922;9.444;2023-06-22T12:55:14;11.07;;;4.68;;
7517;SDS011;3800;48.922;9.444;2023-06-22T12:57:43;7.62;;;4.85;;
7517;SDS011;3800;48.922;9.444;2023-06-22T13:00:11;9.75;;;4.78;;
7517;SDS011;3800;48.922;9.444;2023-06-22T13:02:41;9.07;;;4.55;;
7517;SDS011;3800;48.922;9.444;2023-06-22T13:05:09;10.30;;;5.10;;
7517;SDS011;3800;48.922;9.444;2023-06-22T13:07:37;9.52;;;4.60;;
7517;SDS011;3800;48.922;9.444;2023-06-22T13:10:07;8.57;;;5.12;;
7517;SDS011;3800;48.922;9.444;2023-06-22T13:12:35;11.40;;;5.20;;
7517;SDS011;3800;48.922;9.444;2023-06-22T13:15:04;10.50;;;4.63;;
7517;SDS011;3800;48.922;9.444;2023-06-22T13:17:33;7.72;;;4.85;;
7517;SDS011;3800;48.922;9.444;2023-06-22T13:20:01;9.60;;;4.85;;
7517;SDS011;3800;48.922;9.444;2023-06-22T13:22:30;9.57;;;4.95;;
7517;SDS011;3800;48.922;9.444;2023-06-22T13:25:00;11.00;;;4.80;;
7517;SDS011;3800;48.922;9.444;2023-06-22T13:27:27;9.68;;;4.72;;
7517;SDS011;3800;48.922;9.444;2023-06-22T13:29:56;8.57;;;4.83;;
7517;SDS011;3800;48.922;9.444;2023-06-22T13:32:25;9.82;;;5.20;;
7517;SDS011;3800;48.922;9.444;2023-06-22T13:34:53;7.85;;;4.97;;
7517;SDS011;3800;48.922;9.444;2023-06-22T13:37:23;9.10;;;5.03;;
7517;SDS011;3800;48.922;9.444;2023-06-22T13:39:51;9.00;;;4.90;;
7517;SDS011;3800;48.922;9.444;2023-06-22T13:42:20;11.10;;;5.05;;
7517;SDS011;3800;48.922;9.444;2023-06-22T13:44:49;10.73;;;5.28;;
7517;SDS011;3800;48.922;9.444;2023-06-22T13:47:17;9.95;;;5.40;;
7517;SDS011;3800;48.922;9.444;2023-06-22T13:49:45;9.93;;;5.18;;
7517;SDS011;3800;48.922;9.444;2023-06-22T13:52:14;7.62;;;4.65;;
7517;SDS011;3800;48.922;9.444;2023-06-22T13:54:42;10.55;;;4.97;;
7517;SDS011;3800;48.922;9.444;2023-06-22T13:57:10;8.73;;;4.90;;
7517;SDS011;3800;48.922;9.444;2023-06-22T13:59:39;10.50;;;5.30;;
7517;SDS011;3800;48.922;9.444;2023-06-22T14:02:07;12.98;;;5.30;;
7517;SDS011;3800;48.922;9.444;2023-06-22T14:04:36;10.48;;;4.95;;
7517;SDS011;3800;48.922;9.444;2023-06-22T14:07:04;15.90;;;5.03;;
7517;SDS011;3800;48.922;9.444;2023-06-22T14:09:32;11.50;;;5.05;;
7517;SDS011;3800;48.922;9.444;2023-06-22T14:12:03;7.62;;;5.20;;
7517;SDS011;3800;48.922;9.444;2023-06-22T14:14:31;9.77;;;5.00;;
7517;SDS011;3800;48.922;9.444;2023-06-22T14:17:00;9.48;;;5.10;;
7517;SDS011;3800;48.922;9.444;2023-06-22T14:19:28;7.68;;;4.80;;
7517;SDS011;3800;48.922;9.444;2023-06-22T14:21:56;11.50;;;5.32;;
7517;SDS011;3800;48.922;9.444;2023-06-22T14:24:25;9.13;;;5.47;;
7517;SDS011;3800;48.922;9.444;2023-06-22T14:26:53;13.07;;;5.40;;
7517;SDS011;3800;48.922;9.444;2023-06-22T14:29:22;12.60;;;5.37;;
7517;SDS011;3800;48.922;9.444;2023-06-22T14:31:49;7.87;;;4.80;;
7517;SDS011;3800;48.922;9.444;2023-06-22T14:34:18;9.25;;;5.18;;
7517;SDS011;3800;48.922;9.444;2023-06-22T14:36:47;8.20;;;5.28;;
7517;SDS011;3800;48.922;9.444;2023-06-22T14:39:16;13.27;;;5.30;;
7517;SDS011;3800;48.922;9.444;2023-06-22T14:41:44;7.87;;;4.70;;
7517;SDS011;3800;48.922;9.444;2023-06-22T14:44:13;8.80;;;5.15;;
7517;SDS011;3800;48.922;9.444;2023-06-22T14:46:41;13.15;;;5.07;;
7517;SDS011;3800;48.922;9.444;2023-06-22T14:49:09;9.50;;;5.28;;
7517;SDS011;3800;48.922;9.444;2023-06-22T14:51:38;14.35;;;5.37;;
7517;SDS011;3800;48.922;9.444;2023-06-22T14:54:09;9.60;;;4.75;;
7517;SDS011;3800;48.922;9.444;2023-06-22T14:56:37;9.35;;;4.82;;
7517;SDS011;3800;48.922;9.444;2023-06-22T14:59:06;9.63;;;5.10;;
7517;SDS011;3800;48.922;9.444;2023-06-22T15:01:34;8.65;;;5.20;;
7517;SDS011;3800;48.922;9.444;2023-06-22T15:04:02;8.00;;;5.03;;
7517;SDS011;3800;48.922;9.444;2023-06-22T15:06:32;10.23;;;5.55;;
7517;SDS011;3800;48.922;9.444;2023-06-22T15:09:00;9.55;;;4.65;;
7517;SDS011;3800;48.922;9.444;2023-06-22T15:11:29;11.23;;;5.12;;
7517;SDS011;3800;48.922;9.444;2023-06-22T15:13:58;13.90;;;4.82;;
7517;SDS011;3800;48.922;9.444;2023-06-22T15:16:26;13.07;;;4.97;;
7517;SDS011;3800;48.922;9.444;2023-06-22T15:18:54;10.70;;;4.45;;
7517;SDS011;3800;48.922;9.444;2023-06-22T15:21:22;11.10;;;4.97;;